Time;durP1;ratioP1;P1;durP2;ratioP2;P2;SDS_P1;SDS_P2;PMS_P1;PMS_P2;Temp;Humidity;BMP_temperature;BMP_pressure;BME280_temperature;BME280_humidity;BME280_pressure;Samples;Min_cycle;Max_cycle;Signal;HPM_P1;HPM_P2
2023/01/12 00:01:37;;;;;;;3.22;0.40;;;8.70;99.90;;;;;;5067343;28;20041;-73
2023/01/12 00:04:03;;;;;;;3.42;0.40;;;8.70;99.90;;;;;;5066534;28;20104;-73
2023/01/12 00:06:31;;;;;;;6.70;0.85;;;8.70;99.90;;;;;;5070044;28;20497;-73
2023/01/12 00:08:56;;;;;;;7.97;0.70;;;8.70;99.90;;;;;;5070296;28;20074;-73
2023/01/12 00:11:22;;;;;;;5.95;0.88;;;8.70;99.90;;;;;;5064928;28;20505;-73
2023/01/12 00:13:48;;;;;;;7.45;1.08;;;8.70;99.90;;;;;;5070979;28;20036;-73
2023/01/12 00:16:36;;;;;;;7.10;0.90;;;8.70;99.90;;;;;;5068111;28;20384;-73
2023/01/12 00:19:22;;;;;;;7.10;0.90;;;8.70;99.90;;;;;;5070042;28;20036;-73
2023/01/12 00:22:00;;;;;;;9.15;1.45;;;8.70;99.90;;;;;;5057939;28;20040;-73
2023/01/12 00:24:34;;;;;;;7.10;0.80;;;8.70;99.90;;;;;;5065348;28;20021;-73
2023/01/12 00:27:03;;;;;;;8.52;0.70;;;8.70;99.90;;;;;;5069143;28;20020;-73
2023/01/12 00:29:28;;;;;;;8.88;0.93;;;8.70;99.90;;;;;;5071290;28;20370;-73
2023/01/12 00:31:55;;;;;;;9.07;1.20;;;8.70;99.90;;;;;;5072382;28;20028;-73
2023/01/12 00:34:21;;;;;;;14.07;2.00;;;8.70;99.90;;;;;;5073260;28;20376;-73
2023/01/12 00:36:47;;;;;;;16.23;2.22;;;8.70;99.90;;;;;;5073176;28;20033;-73
2023/01/12 00:39:14;;;;;;;11.75;1.88;;;8.70;99.90;;;;;;5073745;28;20033;-73
2023/01/12 00:47:10;;;;;;;11.00;1.65;;;8.70;99.90;;;;;;5072977;28;20575;-73
2023/01/12 00:49:36;;;;;;;12.05;2.03;;;8.80;99.90;;;;;;5065758;28;20472;-73
2023/01/12 00:52:04;;;;;;;12.82;2.17;;;8.80;99.90;;;;;;5068304;28;20111;-73
2023/01/12 00:54:31;;;;;;;9.13;1.67;;;8.80;99.90;;;;;;5072199;28;20147;-73
2023/01/12 00:56:56;;;;;;;17.67;2.38;;;8.80;99.90;;;;;;5073191;28;20033;-73
2023/01/12 00:59:22;;;;;;;15.38;3.05;;;8.80;99.90;;;;;;5073179;28;20373;-73
2023/01/12 01:01:48;;;;;;;12.70;2.30;;;8.80;99.90;;;;;;5065582;28;20020;-73
2023/01/12 01:04:13;;;;;;;15.10;1.98;;;8.80;99.90;;;;;;5073164;28;20369;-73
2023/01/12 01:06:39;;;;;;;17.73;1.92;;;8.90;99.90;;;;;;5071161;28;20488;-73
2023/01/12 01:09:05;;;;;;;12.15;1.85;;;8.90;99.90;;;;;;5073227;28;20021;-73
2023/01/12 01:11:32;;;;;;;19.30;1.95;;;8.90;99.90;;;;;;5071021;28;20020;-73
2023/01/12 01:13:58;;;;;;;16.67;2.05;;;9.00;99.90;;;;;;5072696;28;20453;-73
2023/01/12 01:16:24;;;;;;;12.35;1.58;;;9.00;99.90;;;;;;5069134;28;20028;-73
2023/01/12 01:18:49;;;;;;;11.85;1.63;;;9.00;99.90;;;;;;5072582;28;20056;-74
2023/01/12 01:21:15;;;;;;;9.68;1.45;;;9.00;99.90;;;;;;5071728;28;20060;-73
2023/01/12 01:23:41;;;;;;;20.25;2.38;;;9.00;99.90;;;;;;5071311;28;20013;-73
2023/01/12 01:26:13;;;;;;;9.50;1.83;;;9.00;99.90;;;;;;5072190;28;20020;-74
2023/01/12 01:28:39;;;;;;;9.75;1.58;;;9.00;99.90;;;;;;5071619;28;20028;-73
2023/01/12 01:31:10;;;;;;;12.55;1.95;;;9.00;99.90;;;;;;5070715;28;20023;-73
2023/01/12 01:33:36;;;;;;;12.25;1.83;;;9.00;99.90;;;;;;5072300;28;20059;-73
2023/01/12 01:36:02;;;;;;;10.02;1.83;;;9.00;99.90;;;;;;5071692;28;20113;-74
2023/01/12 01:38:28;;;;;;;16.48;1.67;;;9.00;99.90;;;;;;5064437;28;20024;-73
2023/01/12 01:40:53;;;;;;;13.95;1.77;;;9.00;99.90;;;;;;5067172;28;20028;-74
2023/01/12 01:43:22;;;;;;;16.20;1.75;;;9.00;99.90;;;;;;5068788;28;20036;-71
2023/01/12 01:46:02;;;;;;;14.25;2.05;;;9.00;99.90;;;;;;5070111;28;20044;-71
2023/01/12 01:48:32;;;;;;;8.35;1.25;;;9.10;99.90;;;;;;5071837;28;20099;-71
2023/01/12 01:51:01;;;;;;;14.10;1.60;;;9.10;99.90;;;;;;5059419;28;20036;-71
2023/01/12 01:53:30;;;;;;;11.85;1.10;;;9.00;99.90;;;;;;5070057;28;20032;-72
2023/01/12 01:56:00;;;;;;;7.78;1.17;;;9.00;99.90;;;;;;5071673;28;20024;-71
2023/01/12 01:58:32;;;;;;;18.00;1.98;;;9.00;99.90;;;;;;5071506;28;20445;-71
2023/01/12 02:00:58;;;;;;;9.32;1.05;;;9.00;99.90;;;;;;5070037;28;20036;-71
2023/01/12 02:03:24;;;;;;;13.63;1.40;;;9.00;99.90;;;;;;5071607;28;20047;-71
2023/01/12 02:05:51;;;;;;;8.50;1.52;;;9.00;99.90;;;;;;5071253;28;20082;-71
2023/01/12 02:08:42;;;;;;;11.65;1.08;;;9.00;99.90;;;;;;5071478;28;20031;-71
2023/01/12 02:16:46;;;;;;;10.00;0.90;;;9.00;99.90;;;;;;5056407;28;20547;-71
2023/01/12 02:19:42;;;;;;;11.75;1.08;;;9.00;99.90;;;;;;5070879;28;20024;-71
2023/01/12 02:22:48;;;;;;;17.77;1.83;;;9.10;99.90;;;;;;5064415;28;20380;-71
2023/01/12 02:25:32;;;;;;;9.85;1.35;;;9.00;99.90;;;;;;5070674;28;20420;-71
2023/01/12 02:28:16;;;;;;;16.98;1.73;;;9.00;99.90;;;;;;5059076;28;20103;-71
2023/01/12 02:31:08;;;;;;;9.75;0.85;;;9.00;99.90;;;;;;5061771;28;20107;-71
2023/01/12 02:34:12;;;;;;;15.50;1.65;;;9.00;99.90;;;;;;5064534;28;20048;-71
2023/01/12 02:37:13;;;;;;;11.75;1.45;;;9.00;99.90;;;;;;5063220;28;20043;-71
2023/01/12 02:39:49;;;;;;;11.25;1.40;;;9.00;99.90;;;;;;5065764;28;20060;-72
2023/01/12 02:42:40;;;;;;;13.40;1.15;;;9.00;99.90;;;;;;5064344;28;20155;-71
2023/01/12 02:45:14;;;;;;;14.30;1.40;;;9.00;99.90;;;;;;5069211;28;20426;-71
2023/01/12 02:47:50;;;;;;;11.48;0.88;;;9.00;99.90;;;;;;5062356;28;20043;-71
2023/01/12 02:50:24;;;;;;;10.20;1.00;;;9.00;99.90;;;;;;5070629;28;20074;-71
2023/01/12 02:53:00;;;;;;;12.57;0.90;;;9.00;99.90;;;;;;5069085;28;20115;-71
2023/01/12 02:55:27;;;;;;;11.13;0.77;;;9.00;99.90;;;;;;5062349;28;20047;-71
2023/01/12 02:57:55;;;;;;;18.08;1.58;;;9.00;99.90;;;;;;5064941;28;20029;-71
2023/01/12 03:00:21;;;;;;;14.18;1.10;;;9.00;99.90;;;;;;5069937;28;20590;-71
2023/01/12 03:02:46;;;;;;;9.35;1.30;;;9.00;99.90;;;;;;5063813;28;20151;-71
2023/01/12 03:05:12;;;;;;;12.75;1.25;;;9.00;99.90;;;;;;5070622;28;20439;-71
2023/01/12 03:07:52;;;;;;;10.43;0.93;;;9.00;99.90;;;;;;5068774;28;20434;-71
2023/01/12 03:10:45;;;;;;;15.13;2.75;;;9.10;99.90;;;;;;5065756;28;20024;-72
2023/01/12 03:13:14;;;;;;;6.95;0.80;;;9.10;99.90;;;;;;5067473;28;20063;-72
2023/01/12 03:15:51;;;;;;;13.27;1.38;;;9.00;99.90;;;;;;5067218;28;20028;-72
2023/01/12 03:18:27;;;;;;;16.92;1.15;;;9.10;99.90;;;;;;5070326;28;20037;-72
2023/01/12 03:20:57;;;;;;;14.52;1.33;;;9.10;99.90;;;;;;5067848;28;20024;-72
2023/01/12 03:23:29;;;;;;;14.70;0.90;;;9.10;99.90;;;;;;5067423;28;20048;-73
2023/01/12 03:25:57;;;;;;;16.58;1.63;;;9.10;99.90;;;;;;5060174;28;20047;-72
2023/01/12 03:28:29;;;;;;;15.57;1.33;;;9.00;99.90;;;;;;5068663;28;20024;-72
2023/01/12 03:31:07;;;;;;;8.48;0.70;;;9.00;99.90;;;;;;5060067;28;20025;-72
2023/01/12 03:33:33;;;;;;;6.82;0.90;;;9.00;99.90;;;;;;5070367;28;20546;-72
2023/01/12 03:36:18;;;;;;;15.40;1.75;;;9.00;99.90;;;;;;5065190;28;20048;-72
2023/01/12 03:39:21;;;;;;;10.23;1.02;;;9.00;99.90;;;;;;5069848;28;20021;-72
2023/01/12 03:42:00;;;;;;;9.07;0.95;;;9.00;99.90;;;;;;5062447;28;20041;-72
2023/01/12 03:44:37;;;;;;;6.32;0.63;;;9.00;99.90;;;;;;5065056;28;20059;-72
2023/01/12 03:47:11;;;;;;;15.88;1.55;;;9.00;99.90;;;;;;5070169;28;20038;-72
2023/01/12 03:49:46;;;;;;;10.30;1.40;;;9.00;99.90;;;;;;5065466;28;20012;-72
2023/01/12 03:52:13;;;;;;;14.65;0.95;;;9.00;99.90;;;;;;5069061;28;20042;-72
2023/01/12 03:54:42;;;;;;;12.57;0.80;;;9.00;99.90;;;;;;5071436;28;20133;-72
2023/01/12 03:57:10;;;;;;;5.72;0.80;;;9.00;99.90;;;;;;5072780;28;20132;-72
2023/01/12 03:59:36;;;;;;;10.50;0.88;;;9.00;99.90;;;;;;5058625;28;20700;-72
2023/01/12 04:02:02;;;;;;;12.55;0.85;;;9.00;99.90;;;;;;5065531;28;20028;-73
2023/01/12 04:04:28;;;;;;;9.93;0.95;;;9.00;99.90;;;;;;5073344;28;20020;-72
2023/01/12 04:06:53;;;;;;;10.48;1.02;;;9.10;99.90;;;;;;5063513;28;20044;-72
2023/01/12 04:09:21;;;;;;;9.88;0.80;;;9.10;99.90;;;;;;5067727;28;20436;-73
2023/01/12 04:14:31;;;;;;;7.50;0.50;;;9.10;99.90;;;;;;5073962;28;20023;-72
2023/01/12 04:16:57;;;;;;;10.60;0.57;;;9.00;99.90;;;;;;5073462;28;20111;-72
2023/01/12 04:19:22;;;;;;;5.25;0.70;;;9.00;99.90;;;;;;5073957;28;20469;-72
2023/01/12 04:24:32;;;;;;;8.65;0.60;;;9.00;99.90;;;;;;5068566;28;20066;-72
2023/01/12 04:26:58;;;;;;;8.65;0.60;;;9.00;99.90;;;;;;5071186;28;20033;-73
2023/01/12 04:29:23;;;;;;;7.95;0.82;;;9.00;99.90;;;;;;5073751;28;20124;-72
2023/01/12 04:31:49;;;;;;;7.25;0.77;;;9.00;99.90;;;;;;5069724;28;20054;-72
2023/01/12 04:34:14;;;;;;;9.80;0.50;;;9.00;99.90;;;;;;5070663;28;20050;-72
2023/01/12 04:36:43;;;;;;;9.85;0.55;;;9.00;99.90;;;;;;5071145;28;20055;-72
2023/01/12 04:39:09;;;;;;;7.07;0.95;;;9.10;99.90;;;;;;5073859;28;20387;-72
2023/01/12 04:41:34;;;;;;;9.05;0.73;;;9.10;99.90;;;;;;5070436;28;20040;-72
2023/01/12 04:44:00;;;;;;;6.50;0.90;;;9.00;99.90;;;;;;5073430;28;20025;-72
2023/01/12 04:46:25;;;;;;;8.43;0.60;;;9.00;99.90;;;;;;5072326;28;20033;-72
2023/01/12 04:48:51;;;;;;;6.75;0.60;;;9.10;99.90;;;;;;5073393;28;20503;-72
2023/01/12 04:51:16;;;;;;;5.90;0.50;;;9.10;99.90;;;;;;5069981;28;20051;-73
2023/01/12 04:53:42;;;;;;;4.15;0.57;;;9.10;99.90;;;;;;5073218;28;20065;-74
2023/01/12 04:56:08;;;;;;;9.95;1.00;;;9.10;99.90;;;;;;5073521;28;20028;-72
2023/01/12 04:58:34;;;;;;;6.38;0.70;;;9.10;99.90;;;;;;5062423;28;20029;-72
2023/01/12 05:01:11;;;;;;;6.03;0.70;;;9.10;99.90;;;;;;5064082;28;20572;-72
2023/01/12 05:03:37;;;;;;;6.13;0.68;;;9.10;99.90;;;;;;5070683;28;20089;-72
2023/01/12 05:06:04;;;;;;;5.63;0.60;;;9.10;99.90;;;;;;5067778;28;20025;-72
2023/01/12 05:11:14;;;;;;;7.43;0.60;;;9.20;99.90;;;;;;5064192;28;20083;-72
2023/01/12 05:13:40;;;;;;;6.25;0.70;;;9.20;99.90;;;;;;5066448;28;20480;-72
2023/01/12 05:16:14;;;;;;;6.50;0.63;;;9.20;99.90;;;;;;5071188;28;20063;-72
2023/01/12 05:18:40;;;;;;;9.02;0.70;;;9.20;99.90;;;;;;5073142;28;20373;-72
2023/01/12 05:21:06;;;;;;;6.57;0.40;;;9.20;99.90;;;;;;5072889;28;20028;-72
2023/01/12 05:23:31;;;;;;;6.05;0.70;;;9.20;99.90;;;;;;5066452;28;20051;-72
2023/01/12 05:26:01;;;;;;;6.28;0.50;;;9.20;99.90;;;;;;5066586;28;20055;-72
2023/01/12 05:28:28;;;;;;;7.95;0.50;;;9.20;99.90;;;;;;5072235;28;20033;-72
2023/01/12 05:30:54;;;;;;;7.88;1.02;;;9.20;99.90;;;;;;5072580;28;20027;-72
2023/01/12 05:33:19;;;;;;;4.38;0.40;;;9.20;99.90;;;;;;5070412;28;20514;-72
2023/01/12 05:35:45;;;;;;;4.43;0.40;;;9.20;99.90;;;;;;5064810;28;20156;-72
2023/01/12 05:38:11;;;;;;;6.65;0.68;;;9.20;99.90;;;;;;5069949;28;20090;-72
2023/01/12 05:40:37;;;;;;;5.63;0.80;;;9.20;99.90;;;;;;5066018;28;20082;-73
2023/01/12 05:46:07;;;;;;;8.07;0.40;;;9.30;99.90;;;;;;5007486;28;20457;-73
2023/01/12 05:48:32;;;;;;;4.97;0.50;;;9.30;99.90;;;;;;5007563;28;20033;-73
2023/01/12 05:51:03;;;;;;;5.10;0.40;;;9.30;99.90;;;;;;5025893;28;20476;-73
2023/01/12 05:53:29;;;;;;;7.68;0.50;;;9.30;99.90;;;;;;5066954;28;20028;-73
2023/01/12 05:55:55;;;;;;;4.65;0.43;;;9.30;99.90;;;;;;5055220;28;20036;-73
2023/01/12 05:58:21;;;;;;;4.00;0.40;;;9.30;99.90;;;;;;5058433;28;20042;-73
2023/01/12 06:00:47;;;;;;;4.47;0.40;;;9.20;99.90;;;;;;5061915;28;20031;-73
2023/01/12 06:03:13;;;;;;;4.88;0.47;;;9.30;99.90;;;;;;5067436;28;20033;-73
2023/01/12 06:05:38;;;;;;;5.32;0.50;;;9.30;99.90;;;;;;5071596;28;20032;-73
2023/01/12 06:08:04;;;;;;;6.97;0.47;;;9.30;99.90;;;;;;5065574;28;20028;-73
2023/01/12 06:10:30;;;;;;;5.35;0.40;;;9.30;99.90;;;;;;5066123;28;20029;-73
2023/01/12 06:15:39;;;;;;;5.82;0.50;;;9.30;99.90;;;;;;5068824;28;20520;-73
2023/01/12 06:18:05;;;;;;;5.13;0.45;;;9.30;99.90;;;;;;5065021;28;20474;-73
2023/01/12 06:20:31;;;;;;;4.40;0.40;;;9.30;99.90;;;;;;5071428;28;20025;-73
2023/01/12 06:23:01;;;;;;;6.78;0.75;;;9.30;99.90;;;;;;5062546;28;20024;-72
2023/01/12 06:25:28;;;;;;;5.43;0.40;;;9.30;99.90;;;;;;5069792;28;20485;-73
2023/01/12 06:27:54;;;;;;;5.55;0.50;;;9.30;99.90;;;;;;5071495;28;20028;-73
2023/01/12 06:30:20;;;;;;;5.35;0.30;;;9.30;99.90;;;;;;5068203;28;20103;-73
2023/01/12 06:32:45;;;;;;;4.18;0.30;;;9.30;99.90;;;;;;5070052;28;20035;-73
2023/01/12 06:35:11;;;;;;;2.97;0.30;;;9.30;99.90;;;;;;5070914;28;20475;-73
2023/01/12 06:37:37;;;;;;;4.68;0.50;;;9.30;99.90;;;;;;5063110;28;20403;-73
2023/01/12 06:40:03;;;;;;;6.60;0.40;;;9.30;99.90;;;;;;5070200;28;20024;-73
2023/01/12 06:42:29;;;;;;;4.50;0.50;;;9.30;99.90;;;;;;5064772;28;20113;-73
2023/01/12 06:44:55;;;;;;;2.67;0.30;;;9.40;99.90;;;;;;5070629;28;20052;-73
2023/01/12 06:47:21;;;;;;;3.08;0.40;;;9.30;99.90;;;;;;5062434;28;20057;-74
2023/01/12 06:49:46;;;;;;;3.90;0.60;;;9.40;99.90;;;;;;5065775;28;20509;-73
2023/01/12 06:52:12;;;;;;;1.95;0.40;;;9.40;99.90;;;;;;5068901;28;20024;-73
2023/01/12 06:54:38;;;;;;;2.97;0.85;;;9.40;99.90;;;;;;5069571;28;20494;-74
2023/01/12 06:57:03;;;;;;;1.85;0.30;;;9.40;99.90;;;;;;5054888;28;20115;-73
2023/01/12 06:59:29;;;;;;;2.80;0.52;;;9.40;99.90;;;;;;5065104;28;20134;-73
2023/01/12 07:01:54;;;;;;;4.93;0.60;;;9.50;99.90;;;;;;5068880;28;20467;-73
2023/01/12 07:04:20;;;;;;;3.38;0.50;;;9.50;99.90;;;;;;5070838;28;20036;-73
2023/01/12 07:06:47;;;;;;;2.75;0.55;;;9.50;99.90;;;;;;5067383;28;20468;-73
2023/01/12 07:09:13;;;;;;;7.20;0.60;;;9.50;99.90;;;;;;5068691;28;20111;-73
2023/01/12 07:11:38;;;;;;;4.85;0.55;;;9.50;99.90;;;;;;5058449;28;20029;-73
2023/01/12 07:14:04;;;;;;;3.25;0.50;;;9.50;99.90;;;;;;5065884;28;20438;-72
2023/01/12 07:16:30;;;;;;;3.92;0.40;;;9.60;99.90;;;;;;5068186;28;20495;-73
2023/01/12 07:18:55;;;;;;;4.28;0.73;;;9.60;99.90;;;;;;5070358;28;20365;-73
2023/01/12 07:21:21;;;;;;;5.85;0.80;;;9.60;99.90;;;;;;5059195;28;20036;-73
2023/01/12 07:23:46;;;;;;;2.03;0.50;;;9.60;99.90;;;;;;5066454;28;20401;-73
2023/01/12 07:26:12;;;;;;;2.05;0.60;;;9.60;99.90;;;;;;5061161;28;20033;-73
2023/01/12 07:28:38;;;;;;;1.55;0.50;;;9.60;99.90;;;;;;5064846;28;20030;-73
2023/01/12 07:31:05;;;;;;;3.78;1.10;;;9.60;99.90;;;;;;5064400;28;20388;-74
2023/01/12 07:33:33;;;;;;;2.13;0.60;;;9.70;99.90;;;;;;5067701;28;20499;-73
2023/01/12 07:36:00;;;;;;;5.72;0.50;;;9.70;99.90;;;;;;5062386;28;20048;-73
2023/01/12 07:38:29;;;;;;;2.25;0.60;;;9.70;99.90;;;;;;5063229;28;20029;-73
2023/01/12 07:40:59;;;;;;;1.20;0.50;;;9.70;99.90;;;;;;5065927;28;20032;-73
2023/01/12 07:43:25;;;;;;;2.85;0.52;;;9.70;99.90;;;;;;5063008;28;20103;-73
2023/01/12 07:45:50;;;;;;;5.50;0.60;;;9.70;99.90;;;;;;5060955;28;20433;-73
2023/01/12 07:48:16;;;;;;;2.92;0.90;;;9.70;99.90;;;;;;5064525;28;20016;-73
2023/01/12 07:50:42;;;;;;;2.25;0.70;;;9.70;99.90;;;;;;5057872;28;20020;-73
2023/01/12 07:53:08;;;;;;;4.35;0.90;;;9.70;99.90;;;;;;5060234;28;20025;-73
2023/01/12 07:55:33;;;;;;;3.63;0.77;;;9.70;99.90;;;;;;5063677;28;20043;-73
2023/01/12 07:58:06;;;;;;;4.10;1.00;;;9.70;99.90;;;;;;5070183;28;20040;-73
2023/01/12 08:00:32;;;;;;;3.28;0.70;;;9.70;99.90;;;;;;5066623;28;20477;-73
2023/01/12 08:03:07;;;;;;;2.00;0.77;;;9.70;99.90;;;;;;5069121;28;20058;-73
2023/01/12 08:05:34;;;;;;;2.70;0.60;;;9.70;99.90;;;;;;5065466;28;20033;-74
2023/01/12 08:08:00;;;;;;;2.22;0.60;;;9.70;99.90;;;;;;5063583;28;20044;-72
2023/01/12 08:10:25;;;;;;;2.95;0.60;;;9.70;99.90;;;;;;5068289;28;20029;-72
2023/01/12 08:12:51;;;;;;;2.30;0.60;;;9.70;99.90;;;;;;5062137;28;20025;-73
2023/01/12 08:15:16;;;;;;;2.75;0.80;;;9.70;99.90;;;;;;5060223;28;20050;-72
2023/01/12 08:17:49;;;;;;;4.80;0.70;;;9.70;99.90;;;;;;5058007;28;20048;-72
2023/01/12 08:20:35;;;;;;;2.20;0.60;;;9.80;99.90;;;;;;5064960;28;20021;-73
2023/01/12 08:23:07;;;;;;;3.65;1.05;;;9.80;99.90;;;;;;5066444;28;20035;-72
2023/01/12 08:25:43;;;;;;;1.98;0.50;;;9.80;99.90;;;;;;5058653;28;20017;-72
2023/01/12 08:28:18;;;;;;;2.65;0.50;;;9.80;99.90;;;;;;5064802;28;20025;-73
2023/01/12 08:30:47;;;;;;;3.15;0.50;;;9.90;99.90;;;;;;5062159;28;20510;-73
2023/01/12 08:33:13;;;;;;;3.92;0.50;;;9.90;99.90;;;;;;5057886;28;20024;-72
2023/01/12 08:35:39;;;;;;;1.50;0.30;;;9.90;99.90;;;;;;5068668;28;20025;-73
2023/01/12 08:38:05;;;;;;;2.85;0.50;;;9.90;99.90;;;;;;5064995;28;20388;-73
2023/01/12 08:44:00;;;;;;;5.20;0.85;;;10.00;99.90;;;;;;5070440;28;20055;-73
2023/01/12 08:46:06;;;;;;;2.30;0.60;;;10.00;99.90;;;;;;5072095;28;20113;-72
2023/01/12 08:48:35;;;;;;;2.35;0.50;;;10.00;99.90;;;;;;5067404;28;20488;-72
2023/01/12 08:51:01;;;;;;;2.05;0.60;;;10.00;99.90;;;;;;5068726;28;20052;-72
2023/01/12 08:53:27;;;;;;;1.77;0.65;;;10.00;99.90;;;;;;5071697;28;20033;-72
2023/01/12 08:55:53;;;;;;;2.95;0.70;;;10.00;99.90;;;;;;5064173;28;21335;-73
2023/01/12 08:58:18;;;;;;;3.35;0.77;;;10.00;99.90;;;;;;5067076;28;20081;-73
2023/01/12 09:00:44;;;;;;;2.50;0.70;;;10.00;99.90;;;;;;5072618;28;20024;-73
2023/01/12 09:03:09;;;;;;;1.67;0.60;;;10.00;99.90;;;;;;5067190;28;20488;-73
2023/01/12 09:05:35;;;;;;;4.68;1.00;;;10.00;99.90;;;;;;5071457;28;20023;-72
2023/01/12 09:08:00;;;;;;;2.80;0.90;;;10.00;99.90;;;;;;5072517;28;20039;-72
2023/01/12 09:10:26;;;;;;;3.30;0.90;;;10.10;99.90;;;;;;5068137;28;20096;-73
2023/01/12 09:12:51;;;;;;;4.55;0.90;;;10.10;99.90;;;;;;5061229;28;20034;-73
2023/01/12 09:15:17;;;;;;;3.92;0.80;;;10.10;99.90;;;;;;5064918;28;20021;-73
2023/01/12 09:17:43;;;;;;;1.77;0.50;;;10.10;99.90;;;;;;5070110;28;20123;-72
2023/01/12 09:20:10;;;;;;;2.00;0.80;;;10.10;99.90;;;;;;5070700;28;20024;-72
2023/01/12 09:22:35;;;;;;;2.95;1.65;;;10.10;99.90;;;;;;5069739;28;20025;-73
2023/01/12 09:25:01;;;;;;;6.25;2.40;;;10.10;99.90;;;;;;5070675;28;20031;-72
2023/01/12 09:27:27;;;;;;;4.38;1.60;;;10.10;99.90;;;;;;5070207;28;20060;-72
2023/01/12 09:29:52;;;;;;;3.90;1.67;;;10.10;99.90;;;;;;5068601;28;20020;-73
2023/01/12 09:32:18;;;;;;;4.20;1.20;;;10.20;99.90;;;;;;5068649;28;20104;-73
2023/01/12 09:34:43;;;;;;;3.22;0.80;;;10.20;99.90;;;;;;5056336;28;20058;-73
2023/01/12 09:37:09;;;;;;;3.80;0.77;;;10.20;99.90;;;;;;5059954;28;20040;-73
2023/01/12 09:39:35;;;;;;;1.65;0.70;;;10.20;99.90;;;;;;5060849;28;20141;-73
2023/01/12 09:47:47;;;;;;;2.90;0.60;;;10.20;99.90;;;;;;5064662;28;20032;-73
2023/01/12 09:50:22;;;;;;;2.20;0.60;;;10.20;99.90;;;;;;5065373;28;20101;-72
2023/01/12 09:52:58;;;;;;;3.30;0.93;;;10.30;99.90;;;;;;5068968;28;20032;-73
2023/01/12 09:55:28;;;;;;;1.40;0.50;;;10.30;99.90;;;;;;5068827;28;20111;-72
2023/01/12 09:58:19;;;;;;;2.40;0.50;;;10.30;99.90;;;;;;5066805;28;20032;-72
2023/01/12 10:00:50;;;;;;;1.70;0.63;;;10.30;99.90;;;;;;5071475;28;20056;-72
2023/01/12 10:03:27;;;;;;;2.00;0.60;;;10.30;99.90;;;;;;5068302;28;20400;-72
2023/01/12 10:05:56;;;;;;;2.28;0.60;;;10.40;99.90;;;;;;5071228;28;20040;-73
2023/01/12 10:08:33;;;;;;;0.93;0.40;;;10.40;99.90;;;;;;5067958;28;20024;-73
2023/01/12 10:11:27;;;;;;;0.90;0.40;;;10.40;99.90;;;;;;5063671;28;20035;-72
2023/01/12 10:14:00;;;;;;;1.98;0.50;;;10.40;99.90;;;;;;5059626;28;20029;-72
2023/01/12 10:16:49;;;;;;;2.83;0.82;;;10.40;99.90;;;;;;5067335;28;20105;-72
2023/01/12 10:19:18;;;;;;;2.25;0.50;;;10.50;99.90;;;;;;5071110;28;20104;-72
2023/01/12 10:21:44;;;;;;;1.58;0.50;;;10.50;99.90;;;;;;5071332;28;20396;-72
2023/01/12 10:24:12;;;;;;;1.00;0.50;;;10.50;99.90;;;;;;5064676;28;20021;-74
2023/01/12 10:26:44;;;;;;;2.17;0.77;;;10.50;99.90;;;;;;5070062;28;20129;-73
2023/01/12 10:29:11;;;;;;;2.38;0.50;;;10.50;99.90;;;;;;5070078;28;20037;-71
2023/01/12 10:31:37;;;;;;;3.58;0.50;;;10.50;99.90;;;;;;5067565;28;20503;-72
2023/01/12 10:34:03;;;;;;;0.93;0.47;;;10.50;99.90;;;;;;5062322;28;20024;-72
2023/01/12 10:36:29;;;;;;;1.60;0.50;;;10.50;99.90;;;;;;5069555;28;20116;-72
2023/01/12 10:38:59;;;;;;;1.08;0.40;;;10.50;99.90;;;;;;5070417;28;20099;-72
2023/01/12 10:41:36;;;;;;;1.25;0.68;;;10.60;99.90;;;;;;5066945;28;20051;-71
2023/01/12 10:44:02;;;;;;;1.42;0.65;;;10.60;99.90;;;;;;5069246;28;20059;-71
2023/01/12 10:46:32;;;;;;;2.13;0.50;;;10.60;99.90;;;;;;5069155;28;20052;-72
2023/01/12 10:49:20;;;;;;;0.93;0.40;;;10.70;99.90;;;;;;5069247;28;20024;-73
2023/01/12 10:51:58;;;;;;;0.80;0.40;;;10.70;99.90;;;;;;5070329;28;20048;-72
2023/01/12 10:54:31;;;;;;;2.33;0.38;;;10.60;99.90;;;;;;5066032;28;20115;-72
2023/01/12 10:57:15;;;;;;;1.63;0.55;;;10.70;99.90;;;;;;5066635;28;20036;-72
2023/01/12 10:59:56;;;;;;;1.17;0.47;;;10.70;99.90;;;;;;5069857;28;20107;-73
2023/01/12 11:02:25;;;;;;;0.88;0.40;;;10.70;99.90;;;;;;5060053;28;20021;-72
2023/01/12 11:04:52;;;;;;;1.40;0.40;;;10.60;99.90;;;;;;5064098;28;20106;-73
2023/01/12 11:07:29;;;;;;;1.23;0.50;;;10.60;99.90;;;;;;5063918;28;20476;-72
2023/01/12 11:10:15;;;;;;;2.30;0.60;;;10.60;99.90;;;;;;5068031;28;20056;-72
2023/01/12 11:12:41;;;;;;;1.65;0.50;;;10.70;99.90;;;;;;5058610;28;20032;-72
2023/01/12 11:15:10;;;;;;;0.70;0.40;;;10.60;99.90;;;;;;5064306;28;20029;-72
2023/01/12 11:17:48;;;;;;;1.23;0.60;;;10.70;99.90;;;;;;5062264;28;20364;-72
2023/01/12 11:20:27;;;;;;;0.80;0.50;;;10.60;99.90;;;;;;5067876;28;20040;-72
2023/01/12 11:22:56;;;;;;;1.00;0.50;;;10.60;99.90;;;;;;5068333;28;20032;-72
2023/01/12 11:25:24;;;;;;;1.23;0.60;;;10.70;99.90;;;;;;5067812;28;20025;-72
2023/01/12 11:27:55;;;;;;;2.20;0.60;;;10.70;99.90;;;;;;5069093;28;20060;-72
2023/01/12 11:30:47;;;;;;;1.17;0.50;;;10.70;99.90;;;;;;5056336;28;20079;-72
2023/01/12 11:33:22;;;;;;;0.85;0.43;;;10.70;99.90;;;;;;5066235;28;20032;-73
2023/01/12 11:36:01;;;;;;;1.00;0.50;;;10.70;99.90;;;;;;5066047;28;20051;-72
2023/01/12 11:38:52;;;;;;;1.75;0.45;;;10.70;99.90;;;;;;5069039;28;20119;-71
2023/01/12 11:45:01;;;;;;;0.88;0.50;;;10.70;99.90;;;;;;5066583;28;20079;-72
2023/01/12 11:47:47;;;;;;;1.30;0.43;;;10.70;99.90;;;;;;5069511;28;20420;-72
2023/01/12 11:50:25;;;;;;;2.38;0.40;;;10.70;99.90;;;;;;5068807;28;20535;-72
2023/01/12 11:52:52;;;;;;;2.08;0.40;;;10.70;99.90;;;;;;5062260;28;20051;-73
2023/01/12 11:56:05;;;;;;;1.20;0.38;;;10.70;99.90;;;;;;5067580;28;20105;-73
2023/01/12 11:58:53;;;;;;;0.80;0.40;;;10.80;99.90;;;;;;5026864;28;20044;-73
2023/01/12 12:01:46;;;;;;;0.90;0.40;;;10.90;99.90;;;;;;5058121;28;20064;-74
2023/01/12 12:04:45;;;;;;;0.88;0.30;;;10.90;99.90;;;;;;5069267;28;20029;-74
2023/01/12 12:07:18;;;;;;;1.10;0.30;;;10.90;99.90;;;;;;5057984;28;20091;-71
2023/01/12 12:10:12;;;;;;;0.75;0.50;;;10.90;99.90;;;;;;5067054;28;20043;-72
2023/01/12 12:13:14;;;;;;;0.50;0.40;;;10.90;99.90;;;;;;5060480;28;20033;-73
2023/01/12 12:15:53;;;;;;;1.58;0.25;;;10.90;99.90;;;;;;5052720;28;20029;-72
2023/01/12 12:18:39;;;;;;;2.05;0.30;;;10.90;99.90;;;;;;5067443;28;20051;-71
2023/01/12 12:21:42;;;;;;;2.90;0.50;;;10.90;99.90;;;;;;5062082;28;20404;-72
2023/01/12 12:24:09;;;;;;;;;;;10.90;99.90;;;;;;5066327;28;20403;-72
2023/01/12 12:26:54;;;;;;;1.02;0.40;;;10.90;99.90;;;;;;5071476;28;20314;-72
2023/01/12 12:29:51;;;;;;;1.95;0.40;;;10.90;99.90;;;;;;5062948;28;20032;-72
2023/01/12 12:32:29;;;;;;;1.48;0.50;;;10.90;99.90;;;;;;5062894;28;20357;-71
2023/01/12 12:35:19;;;;;;;1.08;0.50;;;10.90;99.90;;;;;;5063178;28;20035;-72
2023/01/12 12:38:22;;;;;;;1.13;0.60;;;10.90;99.90;;;;;;5064622;28;20062;-72
2023/01/12 12:47:54;;;;;;;2.17;1.00;;;10.90;99.90;;;;;;5058734;28;20091;-72
2023/01/12 12:50:22;;;;;;;1.98;1.05;;;10.90;99.90;;;;;;5068265;28;20025;-72
2023/01/12 12:52:59;;;;;;;2.05;1.30;;;10.80;99.90;;;;;;5068367;28;20031;-72
2023/01/12 12:55:26;;;;;;;1.70;1.30;;;10.90;99.90;;;;;;5068865;28;20369;-71
2023/01/12 12:58:24;;;;;;;2.47;1.48;;;10.80;99.90;;;;;;5062529;28;20041;-72
2023/01/12 13:00:52;;;;;;;2.13;1.30;;;10.90;99.90;;;;;;5065894;28;20056;-72
2023/01/12 13:03:39;;;;;;;1.75;1.35;;;10.80;99.90;;;;;;5062216;28;20033;-72
2023/01/12 13:06:29;;;;;;;1.40;0.98;;;10.90;99.90;;;;;;5065470;28;20055;-72
2023/01/12 13:09:00;;;;;;;1.98;0.77;;;10.80;99.90;;;;;;5069637;28;20039;-72
2023/01/12 13:11:52;;;;;;;0.90;0.57;;;10.80;99.90;;;;;;5054663;28;20044;-72
2023/01/12 13:14:36;;;;;;;1.25;0.50;;;10.80;99.90;;;;;;5066739;28;20396;-72
2023/01/12 13:17:04;;;;;;;0.90;0.50;;;10.80;99.90;;;;;;5069465;28;20037;-72
2023/01/12 13:19:33;;;;;;;1.45;0.43;;;10.80;99.90;;;;;;5071170;28;20032;-72
2023/01/12 13:22:16;;;;;;;1.67;0.40;;;10.90;99.90;;;;;;5071857;28;20029;-71
2023/01/12 13:24:42;;;;;;;0.60;0.30;;;10.80;99.90;;;;;;5064467;28;20114;-72
2023/01/12 13:27:45;;;;;;;1.25;0.30;;;10.80;99.90;;;;;;5068617;28;20039;-73
2023/01/12 13:30:34;;;;;;;;;;;10.80;99.90;;;;;;5070823;28;20063;-72
2023/01/12 13:33:14;;;;;;;0.65;0.30;;;10.80;99.90;;;;;;5070199;28;22107;-71
2023/01/12 13:36:01;;;;;;;1.60;0.30;;;10.80;99.90;;;;;;5070623;28;20075;-71
2023/01/12 13:38:35;;;;;;;0.90;0.30;;;10.80;99.90;;;;;;5072089;28;20032;-72
2023/01/12 13:41:12;;;;;;;0.77;0.35;;;10.80;99.90;;;;;;5071539;28;20067;-72
2023/01/12 13:43:44;;;;;;;0.50;0.22;;;10.90;99.90;;;;;;5071319;28;20492;-72
2023/01/12 13:46:40;;;;;;;1.02;0.40;;;10.90;99.90;;;;;;5068981;28;20434;-72
2023/01/12 13:49:32;;;;;;;1.88;0.40;;;10.90;99.90;;;;;;5070410;28;20031;-72
2023/01/12 13:52:08;;;;;;;1.77;0.30;;;10.90;99.90;;;;;;5070834;28;20078;-71
2023/01/12 13:54:34;;;;;;;0.90;0.30;;;10.80;99.90;;;;;;5071011;28;20032;-73
2023/01/12 13:57:04;;;;;;;0.70;0.40;;;10.80;99.90;;;;;;5070624;28;20037;-72
2023/01/12 13:59:29;;;;;;;1.90;0.40;;;10.80;99.90;;;;;;5070808;28;22571;-72
2023/01/12 14:01:56;;;;;;;1.13;0.35;;;10.80;99.90;;;;;;5071441;28;20095;-71